Time;durP1;ratioP1;P1;durP2;ratioP2;P2;SDS_P1;SDS_P2;PMS_P1;PMS_P2;Temp;Humidity;BMP_temperature;BMP_pressure;BME280_temperature;BME280_humidity;BME280_pressure;Samples;Min_cycle;Max_cycle;Signal;HPM_P1;HPM_P2
2022/03/30 00:00:32;;;;;;;63.40;32.17;;;;;;;;;;5024304;28;20276;-64
2022/03/30 00:02:57;;;;;;;67.45;33.92;;;;;;;;;;5030390;28;20053;-65
2022/03/30 00:05:23;;;;;;;69.67;33.73;;;;;;;;;;5027188;28;20045;-64
2022/03/30 00:07:52;;;;;;;59.20;33.33;;;;;;;;;;5020641;28;20591;-64
2022/03/30 00:10:17;;;;;;;67.03;33.22;;;;;;;;;;5024222;28;20369;-64
2022/03/30 00:12:42;;;;;;;69.13;34.07;;;;;;;;;;5016937;28;20552;-64
2022/03/30 00:15:08;;;;;;;59.80;33.60;;;;;;;8.94;nan;99739.50;5026978;28;20317;-64
2022/03/30 00:17:34;;;;;;;73.30;33.47;;;;;;;;;;5024737;28;20381;-64
2022/03/30 00:19:59;;;;;;;60.85;32.78;;;;;;;;;;5029987;28;20089;-65
2022/03/30 00:22:25;;;;;;;65.80;34.05;;;;;;;;;;5030441;28;20041;-68
2022/03/30 00:24:50;;;;;;;69.22;33.92;;;;;;;;;;5026702;28;20036;-64
2022/03/30 00:27:16;;;;;;;66.40;34.53;;;;;;;;;;5023077;28;20037;-66
2022/03/30 00:29:41;;;;;;;66.33;34.87;;;;;;;;;;5022282;28;20091;-66
2022/03/30 00:32:06;;;;;;;61.57;33.40;;;;;;;;;;5029642;28;20756;-64
2022/03/30 00:34:32;;;;;;;72.65;35.15;;;;;;;;;;5030298;28;20327;-64
2022/03/30 00:36:57;;;;;;;67.40;33.20;;;;;;;;;;5023934;28;20045;-64
2022/03/30 00:39:22;;;;;;;75.65;33.58;;;;;;;;;;5006640;28;20171;-64
2022/03/30 00:41:47;;;;;;;68.45;34.33;;;;;;;;;;5029605;28;20106;-64
2022/03/30 00:44:14;;;;;;;63.13;33.67;;;;;;;;;;5030304;28;20517;-65
2022/03/30 00:46:41;;;;;;;66.20;34.10;;;;;;;;;;5025858;28;20286;-65
2022/03/30 00:49:07;;;;;;;66.55;35.55;;;;;;;;;;5030414;28;20114;-65
2022/03/30 00:51:32;;;;;;;64.57;32.33;;;;;;;;;;5022113;28;20490;-65
2022/03/30 00:53:58;;;;;;;69.47;34.30;;;;;;;;;;5011373;28;20029;-66
2022/03/30 00:56:24;;;;;;;64.32;33.88;;;;;;;8.05;nan;99728.25;4997690;28;20271;-64
2022/03/30 00:58:50;;;;;;;62.70;32.70;;;;;;;7.98;nan;99725.72;5025046;28;20119;-64
2022/03/30 01:01:16;;;;;;;63.45;32.80;;;;;;;7.85;nan;99724.09;5024388;28;20151;-67
2022/03/30 01:03:41;;;;;;;64.68;32.67;;;;;;;7.85;nan;99725.91;5016495;28;20052;-65
2022/03/30 01:06:07;;;;;;;65.65;33.42;;;;;;;7.78;nan;99720.78;5028501;28;20163;-64
2022/03/30 01:08:32;;;;;;;66.50;32.22;;;;;;;7.72;nan;99721.66;5029789;28;20399;-64
2022/03/30 01:11:00;;;;;;;60.75;32.75;;;;;;;7.59;nan;99711.31;5025749;28;20040;-65
2022/03/30 01:13:26;;;;;;;60.70;32.33;;;;;;;7.54;nan;99709.41;5010935;28;20030;-65
2022/03/30 01:15:51;;;;;;;63.38;31.63;;;;;;;7.62;nan;99729.25;5012835;28;20037;-64
2022/03/30 01:18:17;;;;;;;64.05;33.60;;;;;;;7.59;nan;99722.63;5017267;28;20042;-64
2022/03/30 01:20:50;;;;;;;61.95;34.45;;;;;;;7.56;nan;99723.06;5016519;28;20033;-66
2022/03/30 01:23:17;;;;;;;69.95;35.33;;;;;;;7.58;nan;99720.22;5013855;28;20410;-66
2022/03/30 01:25:42;;;;;;;70.93;34.40;;;;;;;7.45;nan;99700.25;5028626;28;20090;-65
2022/03/30 01:28:08;;;;;;;73.72;34.67;;;;;;;7.56;nan;99719.63;4985578;28;20426;-65
2022/03/30 01:33:17;;;;;;;70.82;36.13;;;;;;;7.53;nan;99715.66;5026862;28;20029;-65
2022/03/30 01:35:43;;;;;;;76.18;37.20;;;;;;;7.51;nan;99716.88;5029788;28;20030;-65
2022/03/30 01:38:09;;;;;;;82.60;38.13;;;;;;;7.47;nan;99716.53;5026506;28;20045;-64
2022/03/30 01:40:35;;;;;;;74.72;35.38;;;;;;;7.46;nan;99712.31;5026577;28;20065;-64
2022/03/30 01:43:01;;;;;;;78.90;37.95;;;;;;;7.44;nan;99717.75;5020410;28;20057;-65
2022/03/30 01:45:27;;;;;;;76.07;37.03;;;;;;;7.28;nan;99699.22;4992489;28;20530;-64
2022/03/30 01:47:57;;;;;;;72.93;36.72;;;;;;;7.42;nan;99716.38;5011135;28;20045;-64
2022/03/30 01:50:23;;;;;;;70.93;36.45;;;;;;;7.39;nan;99712.38;5023771;28;20120;-64
2022/03/30 01:52:48;;;;;;;77.18;37.33;;;;;;;7.32;nan;99705.63;5023260;28;20038;-65
2022/03/30 01:55:15;;;;;;;65.70;36.22;;;;;;;7.37;nan;99706.56;5019512;28;20041;-63
2022/03/30 01:57:41;;;;;;;69.03;36.13;;;;;;;7.26;nan;99689.00;5024675;28;20041;-64
2022/03/30 02:00:07;;;;;;;76.65;35.97;;;;;;;7.34;nan;99709.63;5028085;28;20025;-65
2022/03/30 02:02:33;;;;;;;68.57;34.80;;;;;;;7.29;nan;99698.22;5021490;28;20085;-63
2022/03/30 02:04:58;;;;;;;66.70;34.80;;;;;;;7.25;nan;99705.72;5029396;28;20123;-64
2022/03/30 02:07:24;;;;;;;67.57;35.25;;;;;;;7.25;nan;99713.56;5029002;28;20034;-63
2022/03/30 02:09:49;;;;;;;70.10;35.13;;;;;;;7.18;nan;99705.00;5019219;28;20037;-65
2022/03/30 02:12:15;;;;;;;73.25;36.13;;;;;;;7.14;nan;99703.84;5022698;28;20037;-63
2022/03/30 02:14:41;;;;;;;74.78;35.85;;;;;;;7.14;nan;99712.50;5027466;28;20036;-64
2022/03/30 02:17:07;;;;;;;68.97;35.97;;;;;;;7.11;nan;99699.03;5009520;28;20128;-64
2022/03/30 02:19:33;;;;;;;65.18;34.70;;;;;;;7.07;nan;99697.88;5027805;28;20033;-63
2022/03/30 02:21:58;;;;;;;72.38;35.60;;;;;;;6.95;nan;99677.66;5029646;28;20472;-64
2022/03/30 02:24:24;;;;;;;74.30;35.55;;;;;;;6.99;nan;99688.47;5021029;28;20033;-66
2022/03/30 02:26:50;;;;;;;72.07;36.72;;;;;;;7.00;nan;99709.22;5032207;28;20044;-63
2022/03/30 02:29:16;;;;;;;73.20;37.22;;;;;;;6.86;nan;99707.75;5030209;28;20026;-65
2022/03/30 02:31:43;;;;;;;75.45;37.08;;;;;;;6.47;nan;99651.41;5030235;28;20037;-65
2022/03/30 02:34:10;;;;;;;74.93;39.58;;;;;;;6.68;nan;99699.88;5021976;28;20034;-65
2022/03/30 02:36:36;;;;;;;73.07;38.25;;;;;;;6.68;nan;99705.13;5033262;28;20096;-63
2022/03/30 02:39:05;;;;;;;78.80;37.70;;;;;;;6.59;nan;99702.78;5030298;28;20029;-67
2022/03/30 02:41:31;;;;;;;74.65;37.70;;;;;;;6.60;nan;99714.06;5033075;28;20049;-65
2022/03/30 02:43:56;;;;;;;70.43;36.78;;;;;;;6.62;nan;99717.25;5027282;28;20042;-64
2022/03/30 02:46:21;;;;;;;68.38;36.22;;;;;;;6.58;nan;99710.84;5000871;28;20067;-65
2022/03/30 02:48:47;;;;;;;68.90;35.05;;;;;;;6.58;nan;99711.66;5029425;28;20062;-65
2022/03/30 02:51:13;;;;;;;66.70;34.63;;;;;;;6.55;nan;99709.47;5003571;28;20028;-64
2022/03/30 02:53:38;;;;;;;63.90;34.08;;;;;;;6.58;nan;99710.84;5031477;28;20033;-64
2022/03/30 02:56:05;;;;;;;67.45;34.80;;;;;;;6.22;nan;99660.06;5019605;28;20045;-64
2022/03/30 02:58:30;;;;;;;64.88;33.63;;;;;;;6.52;nan;99703.88;5032606;28;20052;-63
2022/03/30 03:00:56;;;;;;;62.75;32.25;;;;;;;6.49;nan;99699.06;5031385;28;20071;-65
2022/03/30 03:03:23;;;;;;;65.97;32.88;;;;;;;6.43;nan;99692.09;5022767;28;20037;-64
2022/03/30 03:05:48;;;;;;;65.05;33.22;;;;;;;6.45;nan;99706.53;5030937;28;20056;-64
2022/03/30 03:08:13;;;;;;;64.97;33.13;;;;;;;6.52;nan;99704.66;5028907;28;20034;-64
2022/03/30 03:10:41;;;;;;;58.80;31.80;;;;;;;6.57;nan;99722.34;5022015;28;20133;-64
2022/03/30 03:13:07;;;;;;;60.70;32.83;;;;;;;6.47;nan;99701.91;5023835;28;20037;-64
2022/03/30 03:15:35;;;;;;;56.10;31.05;;;;;;;6.44;nan;99699.72;5013501;28;20582;-64
2022/03/30 03:18:01;;;;;;;64.10;32.55;;;;;;;6.53;nan;99715.94;5026056;28;20033;-65
2022/03/30 03:20:28;;;;;;;62.25;32.55;;;;;;;6.51;nan;99708.31;5030993;28;20124;-65
2022/03/30 03:22:54;;;;;;;69.30;33.35;;;;;;;6.50;nan;99705.91;5031992;28;20033;-65
2022/03/30 03:25:20;;;;;;;69.53;32.00;;;;;;;6.44;nan;99714.59;5021801;28;20044;-64
2022/03/30 03:27:46;;;;;;;57.58;31.23;;;;;;;6.40;nan;99709.00;5031468;28;20033;-65
2022/03/30 03:30:13;;;;;;;62.95;31.67;;;;;;;6.31;nan;99702.44;5025749;28;20095;-63
2022/03/30 03:32:38;;;;;;;60.47;32.03;;;;;;;6.28;nan;99702.88;5031046;28;20689;-66
2022/03/30 03:35:07;;;;;;;59.63;31.17;;;;;;;6.27;nan;99709.91;5029705;28;20044;-64
2022/03/30 03:37:32;;;;;;;62.92;31.67;;;;;;;6.27;nan;99706.47;5031658;28;20033;-63
2022/03/30 03:39:58;;;;;;;62.42;31.25;;;;;;;6.15;nan;99688.91;5018487;28;20037;-64
2022/03/30 03:42:23;;;;;;;57.60;30.23;;;;;;;6.20;nan;99696.06;5029722;28;20380;-65
2022/03/30 03:44:49;;;;;;;54.88;30.33;;;;;;;6.20;nan;99697.88;5030852;28;20042;-64
2022/03/30 03:47:14;;;;;;;57.95;31.27;;;;;;;6.21;nan;99708.16;5027985;28;20534;-64
2022/03/30 03:49:40;;;;;;;60.55;30.33;;;;;;;6.20;nan;99710.97;5028870;28;20048;-65
2022/03/30 03:52:06;;;;;;;58.22;28.95;;;;;;;6.13;nan;99697.94;5024093;28;20403;-65
2022/03/30 03:54:32;;;;;;;54.42;28.55;;;;;;;6.16;nan;99705.38;5028775;28;20040;-65
2022/03/30 03:56:58;;;;;;;53.83;27.58;;;;;;;6.11;nan;99697.38;5026472;28;20044;-65
2022/03/30 03:59:23;;;;;;;51.38;27.02;;;;;;;6.10;nan;99699.16;5029943;28;20033;-64
2022/03/30 04:01:49;;;;;;;52.88;26.27;;;;;;;6.04;nan;99709.69;5030129;28;20124;-64
2022/03/30 04:04:15;;;;;;;50.28;26.02;;;;;;;5.92;nan;99699.88;5029125;28;20049;-64
2022/03/30 04:06:40;;;;;;;51.85;25.20;;;;;;;5.89;nan;99697.69;5027606;28;20033;-65
2022/03/30 04:09:06;;;;;;;51.58;26.50;;;;;;;5.92;nan;99704.31;5019365;28;20726;-63
2022/03/30 04:11:31;;;;;;;51.67;26.50;;;;;;;5.86;nan;99700.72;5019225;28;20493;-66
2022/03/30 04:13:57;;;;;;;51.28;26.75;;;;;;;5.93;nan;99698.06;5013936;28;20041;-67
2022/03/30 04:16:22;;;;;;;53.00;26.48;;;;;;;5.70;nan;99670.69;5024256;28;20034;-67
2022/03/30 04:18:48;;;;;;;53.67;25.83;;;;;;;5.91;nan;99700.06;5016580;28;20040;-68
2022/03/30 04:21:13;;;;;;;60.63;26.40;;;;;;;5.99;nan;99709.53;5029067;28;20064;-65
2022/03/30 04:23:39;;;;;;;50.22;26.27;;;;;;;5.92;nan;99701.69;5022757;28;20119;-67
2022/03/30 04:26:04;;;;;;;51.33;27.17;;;;;;;5.98;nan;99700.88;5028306;28;20138;-66
2022/03/30 04:28:30;;;;;;;61.03;27.95;;;;;;;6.00;nan;99704.06;5022346;28;20034;-65
2022/03/30 04:30:56;;;;;;;54.60;26.35;;;;;;;5.94;nan;99692.66;5030602;28;20033;-67
2022/03/30 04:33:21;;;;;;;50.13;26.13;;;;;;;6.13;nan;99701.38;5029246;28;20021;-66
2022/03/30 04:35:47;;;;;;;51.00;26.58;;;;;;;6.13;nan;99701.38;5031050;28;20033;-65
2022/03/30 04:38:14;;;;;;;51.35;26.60;;;;;;;6.21;nan;99702.13;5030584;28;20033;-66
2022/03/30 04:40:40;;;;;;;52.40;26.67;;;;;;;6.23;nan;99715.78;5030884;28;20033;-65
2022/03/30 04:43:05;;;;;;;58.33;27.77;;;;;;;6.25;nan;99711.13;5010626;28;20049;-67
2022/03/30 04:45:31;;;;;;;57.35;26.77;;;;;;;6.25;nan;99711.94;5029942;28;20387;-65
2022/03/30 04:47:57;;;;;;;54.28;26.38;;;;;;;6.37;nan;99717.28;4999943;28;20038;-67
2022/03/30 04:50:23;;;;;;;52.28;26.33;;;;;;;6.38;nan;99714.44;5006727;28;20074;-68
2022/03/30 04:52:48;;;;;;;53.63;27.88;;;;;;;6.39;nan;99705.59;5026065;28;20151;-68
2022/03/30 04:55:14;;;;;;;58.58;26.58;;;;;;;6.68;nan;99731.28;5011064;28;20029;-68
2022/03/30 04:57:40;;;;;;;58.35;27.08;;;;;;;6.78;nan;99732.41;5018822;28;20045;-67
2022/03/30 05:00:09;;;;;;;54.42;27.23;;;;;;;6.85;nan;99726.28;5024125;28;20387;-67
2022/03/30 05:02:34;;;;;;;54.55;26.30;;;;;;;6.89;nan;99728.25;5026580;28;20045;-66
2022/03/30 05:05:00;;;;;;;55.92;26.95;;;;;;;6.96;nan;99728.97;5028969;28;20091;-66
2022/03/30 05:07:26;;;;;;;54.92;27.27;;;;;;;7.00;nan;99726.75;5029804;28;20033;-67
2022/03/30 05:09:51;;;;;;;50.70;26.05;;;;;;;7.00;nan;99719.69;5028183;28;20596;-65
2022/03/30 05:12:17;;;;;;;51.42;25.90;;;;;;;7.11;nan;99727.81;5017268;28;20038;-66
2022/03/30 05:14:43;;;;;;;54.65;25.88;;;;;;;7.18;nan;99737.22;5011183;28;20132;-67
2022/03/30 05:17:08;;;;;;;51.22;25.88;;;;;;;7.21;nan;99730.75;5015705;28;20383;-66
2022/03/30 05:19:35;;;;;;;54.85;27.73;;;;;;;7.27;nan;99740.34;5022098;28;20034;-67
2022/03/30 05:22:00;;;;;;;49.45;25.95;;;;;;;7.18;nan;99720.69;5026576;28;20037;-67
2022/03/30 05:24:26;;;;;;;49.28;26.05;;;;;;;7.22;nan;99734.97;5023905;28;20032;-67
2022/03/30 05:26:53;;;;;;;51.28;25.92;;;;;;;7.27;nan;99744.78;5028837;28;20124;-66
2022/03/30 05:29:18;;;;;;;61.78;25.67;;;;;;;7.28;nan;99746.38;5021501;28;20375;-65
2022/03/30 05:31:45;;;;;;;51.95;27.30;;;;;;;7.29;nan;99746.16;5023091;28;20037;-66
2022/03/30 05:34:11;;;;;;;58.45;27.52;;;;;;;7.29;nan;99746.16;5029295;28;20777;-67
2022/03/30 05:36:36;;;;;;;56.75;28.42;;;;;;;7.27;nan;99726.44;5028281;28;20127;-68
2022/03/30 05:39:02;;;;;;;57.42;26.98;;;;;;;7.41;nan;99743.59;5015640;28;20608;-68
2022/03/30 05:41:28;;;;;;;50.83;27.25;;;;;;;7.43;nan;99731.88;5007343;28;20025;-67
2022/03/30 05:43:53;;;;;;;48.60;26.60;;;;;;;7.40;nan;99724.47;5009798;28;20064;-68
2022/03/30 05:46:19;;;;;;;59.80;26.85;;;;;;;7.49;nan;99729.41;5029101;28;20037;-69
2022/03/30 05:48:44;;;;;;;78.43;27.83;;;;;;;7.55;nan;99731.94;5020091;28;20045;-68
2022/03/30 05:51:10;;;;;;;58.00;27.58;;;;;;;7.57;nan;99727.28;5029739;28;20057;-68
2022/03/30 05:53:35;;;;;;;57.17;27.38;;;;;;;7.69;nan;99726.53;5027059;28;20037;-68
2022/03/30 05:56:02;;;;;;;54.13;28.02;;;;;;;7.84;nan;99727.72;5006756;28;20041;-66
2022/03/30 05:58:27;;;;;;;55.78;27.05;;;;;;;7.87;nan;99724.66;5017663;28;20064;-69
2022/03/30 06:00:52;;;;;;;59.00;26.05;;;;;;;7.97;nan;99729.34;5018142;28;20704;-68
2022/03/30 06:03:18;;;;;;;59.75;28.30;;;;;;;8.12;nan;99728.94;5019837;28;20440;-68
2022/03/30 06:05:43;;;;;;;60.58;29.10;;;;;;;8.20;nan;99718.13;5017189;28;20040;-67
2022/03/30 06:08:09;;;;;;;59.35;31.40;;;;;;;8.39;nan;99725.91;5031926;28;20052;-67
2022/03/30 06:10:35;;;;;;;58.92;29.92;;;;;;;8.51;nan;99718.88;5021305;28;20053;-67
2022/03/30 06:13:02;;;;;;;61.55;31.35;;;;;;;8.63;nan;99718.88;5030077;28;20038;-67
2022/03/30 06:15:28;;;;;;;62.97;32.22;;;;;;;8.72;nan;99726.19;5022045;28;20102;-68
2022/03/30 06:17:55;;;;;;;65.82;32.13;;;;;;;8.71;nan;99700.97;5026440;28;20037;-68
2022/03/30 06:20:25;;;;;;;63.33;31.80;;;;;;;8.92;nan;99719.75;5027342;28;20036;-68
2022/03/30 06:22:52;;;;;;;;;;;;;;;9.05;nan;99724.78;5029266;28;20034;-68
2022/03/30 06:25:19;;;;;;;57.03;29.83;;;;;;;9.16;nan;99725.78;5020150;28;20443;-68
2022/03/30 06:27:44;;;;;;;55.17;30.85;;;;;;;9.23;nan;99720.41;5021174;28;20124;-68
2022/03/30 06:30:11;;;;;;;62.70;31.50;;;;;;;9.39;nan;99730.19;5020588;28;20025;-68
2022/03/30 06:32:37;;;;;;;59.78;31.23;;;;;;;9.44;nan;99716.34;5024832;28;20124;-68
2022/03/30 06:35:04;;;;;;;59.83;31.02;;;;;;;9.63;nan;99723.00;5027116;28;20434;-68
2022/03/30 06:37:29;;;;;;;59.92;29.88;;;;;;;9.74;nan;99719.50;5030273;28;20384;-68
2022/03/30 06:39:54;;;;;;;52.95;27.85;;;;;;;9.96;nan;99717.03;5028814;28;20040;-69
2022/03/30 06:42:21;;;;;;;57.00;28.58;;;;;;;10.14;nan;99715.19;5031858;28;20033;-68
2022/03/30 06:44:46;;;;;;;50.50;29.05;;;;;;;10.26;nan;99712.50;5031440;28;20063;-68
2022/03/30 06:47:12;;;;;;;56.95;27.92;;;;;;;10.41;nan;99707.47;5030617;28;20052;-70
2022/03/30 06:49:37;;;;;;;52.90;27.63;;;;;;;10.53;nan;99713.44;5030266;28;20037;-68
2022/03/30 06:52:05;;;;;;;55.38;26.33;;;;;;;10.69;nan;99708.41;5025647;28;20053;-67
2022/03/30 06:54:30;;;;;;;49.55;26.52;;;;;;;10.84;nan;99719.94;5032361;28;20041;-69
2022/03/30 06:56:59;;;;;;;44.42;24.83;;;;;;;11.00;nan;99710.41;5031207;28;20033;-70
2022/03/30 06:59:25;;;;;;;44.65;24.55;;;;;;;11.14;nan;99708.22;5031713;28;20475;-68
2022/03/30 07:01:51;;;;;;;40.58;22.52;;;;;;;11.34;nan;99701.59;5030463;28;20136;-68
2022/03/30 07:04:17;;;;;;;43.03;20.90;;;;;;;11.57;nan;99713.69;5031968;28;20083;-70
2022/03/30 07:10:15;;;;;;;34.80;18.92;;;;;;;11.66;nan;99688.44;5031876;28;20064;-70
2022/03/30 07:12:12;;;;;;;34.08;19.02;;;;;;;12.16;nan;99707.66;5020229;28;20351;-68
2022/03/30 07:14:37;;;;;;;43.55;18.85;;;;;;;12.31;nan;99713.84;5028694;28;20030;-69
2022/03/30 07:17:03;;;;;;;35.28;18.50;;;;;;;12.43;nan;99718.97;5025193;28;20037;-67
2022/03/30 07:19:28;;;;;;;37.75;17.70;;;;;;;12.63;nan;99722.78;5012594;28;20116;-68
2022/03/30 07:21:54;;;;;;;37.70;17.35;;;;;;;12.68;nan;99710.41;5030043;28;20038;-68
2022/03/30 07:24:20;;;;;;;39.28;17.48;;;;;;;12.90;nan;99722.66;5028011;28;20033;-68
2022/03/30 07:26:45;;;;;;;43.30;18.75;;;;;;;13.01;nan;99724.31;5020085;28;20045;-68
2022/03/30 07:29:11;;;;;;;43.13;17.55;;;;;;;13.15;nan;99724.66;5015617;28;20613;-69
2022/03/30 07:31:37;;;;;;;31.85;17.38;;;;;;;13.22;nan;99719.09;5020910;28;20475;-68
2022/03/30 07:34:03;;;;;;;33.92;17.35;;;;;;;13.35;nan;99732.66;5031042;28;20145;-68
2022/03/30 07:36:30;;;;;;;32.30;16.60;;;;;;;13.46;nan;99732.72;5023650;28;20758;-68
2022/03/30 07:38:55;;;;;;;34.38;16.48;;;;;;;13.43;nan;99720.78;5023042;28;20042;-68
2022/03/30 07:41:20;;;;;;;35.53;15.10;;;;;;;13.59;nan;99734.84;5025668;28;20403;-67
2022/03/30 07:43:46;;;;;;;30.15;14.48;;;;;;;13.67;nan;99738.84;5030435;28;20033;-68
2022/03/30 07:46:13;;;;;;;32.25;14.32;;;;;;;13.51;nan;99685.13;5028245;28;20579;-68
2022/03/30 07:48:39;;;;;;;30.02;13.85;;;;;;;13.84;nan;99723.53;4999981;28;20055;-67
2022/03/30 07:51:04;;;;;;;28.00;13.05;;;;;;;13.95;nan;99713.75;5031284;28;20037;-68
2022/03/30 07:53:30;;;;;;;31.60;12.88;;;;;;;14.07;nan;99726.72;5031950;28;20133;-68
2022/03/30 07:55:56;;;;;;;32.85;12.95;;;;;;;14.12;nan;99719.56;5030252;28;20467;-68
2022/03/30 07:58:21;;;;;;;28.75;12.55;;;;;;;14.27;nan;99729.41;5027960;28;20037;-68
2022/03/30 08:00:47;;;;;;;27.33;11.38;;;;;;;14.33;nan;99723.03;5026949;28;20434;-68
2022/03/30 08:03:13;;;;;;;31.58;12.20;;;;;;;14.30;nan;99709.53;5016729;28;20045;-68
2022/03/30 08:05:38;;;;;;;25.55;11.80;;;;;;;14.47;nan;99726.72;5012598;28;20075;-68
2022/03/30 08:08:06;;;;;;;27.83;11.82;;;;;;;14.53;nan;99726.69;5012092;28;20626;-68
2022/03/30 08:10:33;;;;;;;32.72;12.10;;;;;;;14.59;nan;99726.47;5023285;28;20032;-68
2022/03/30 08:12:59;;;;;;;35.63;11.35;;;;;;;14.66;nan;99719.03;5019572;28;20034;-68
2022/03/30 08:15:25;;;;;;;24.75;11.68;;;;;;;14.78;nan;99724.03;5028698;28;20399;-69
2022/03/30 08:17:52;;;;;;;29.75;11.68;;;;;;;14.85;nan;99721.91;5027926;28;20496;-67
2022/03/30 08:23:07;;;;;;;31.92;12.13;;;;;;;14.91;nan;99693.50;4968182;28;20034;-68
2022/03/30 08:25:33;;;;;;;32.92;11.40;;;;;;;15.18;nan;99722.31;4953289;28;20082;-65
2022/03/30 08:27:58;;;;;;;29.23;12.27;;;;;;;15.17;nan;99717.28;4966461;28;20522;-68
2022/03/30 08:30:24;;;;;;;29.08;12.10;;;;;;;15.25;nan;99729.97;4969267;28;20158;-68
2022/03/30 08:32:49;;;;;;;29.17;13.00;;;;;;;15.32;nan;99728.63;4968432;28;20062;-67
2022/03/30 08:35:15;;;;;;;28.92;11.25;;;;;;;15.41;nan;99730.69;4968182;28;20033;-68
2022/03/30 08:37:41;;;;;;;30.73;11.30;;;;;;;15.45;nan;99729.88;4947440;28;20042;-69
2022/03/30 08:40:07;;;;;;;29.90;11.35;;;;;;;15.49;nan;99730.94;4949670;28;20526;-69
2022/03/30 08:42:34;;;;;;;26.58;9.85;;;;;;;15.51;nan;99731.47;4961965;28;20043;-68
2022/03/30 08:45:02;;;;;;;35.25;10.70;;;;;;;15.60;nan;99742.28;4958340;28;20397;-70
2022/03/30 08:47:28;;;;;;;32.25;10.77;;;;;;;15.68;nan;99747.03;4966731;28;20042;-68
2022/03/30 08:49:53;;;;;;;29.30;10.18;;;;;;;15.61;nan;99735.09;4962177;28;20056;-69
2022/03/30 08:52:19;;;;;;;31.92;10.57;;;;;;;15.64;nan;99734.56;4971917;28;20039;-69
2022/03/30 08:54:46;;;;;;;28.13;11.10;;;;;;;15.77;nan;99741.16;4968237;28;20042;-69
2022/03/30 08:57:13;;;;;;;28.05;11.45;;;;;;;15.94;nan;99739.69;4950046;29;20635;-69
2022/03/30 08:59:40;;;;;;;43.30;11.40;;;;;;;16.00;nan;99747.66;4978065;28;20145;-69
2022/03/30 09:02:08;;;;;;;30.58;10.98;;;;;;;15.84;nan;99717.75;4994669;28;20034;-70
2022/03/30 09:04:33;;;;;;;29.90;10.63;;;;;;;16.11;nan;99738.50;5014318;28;20530;-69
2022/03/30 09:06:59;;;;;;;25.42;9.27;;;;;;;16.16;nan;99725.19;5030100;28;20042;-69
2022/03/30 09:09:34;;;;;;;24.23;9.65;;;;;;;16.20;nan;99723.56;5016873;28;20037;-69
2022/03/30 09:12:01;;;;;;;26.70;10.13;;;;;;;16.32;nan;99736.50;5002086;28;20041;-69
2022/03/30 09:14:32;;;;;;;25.98;9.60;;;;;;;16.30;nan;99728.00;5014477;28;20034;-69
2022/03/30 09:17:02;;;;;;;24.42;8.15;;;;;;;16.44;nan;99726.28;5005189;28;20487;-68
2022/03/30 09:19:30;;;;;;;23.58;8.05;;;;;;;16.51;nan;99720.63;5018662;28;20133;-69
2022/03/30 09:21:59;;;;;;;26.08;7.70;;;;;;;16.57;nan;99725.63;5028204;28;20039;-66
2022/03/30 09:24:28;;;;;;;23.02;7.20;;;;;;;16.63;nan;99726.38;5024892;28;20135;-68
2022/03/30 09:26:55;;;;;;;20.30;6.60;;;;;;;16.69;nan;99711.97;5030033;28;20033;-68
2022/03/30 09:29:26;;;;;;;22.38;7.20;;;;;;;16.73;nan;99709.50;5020502;28;20061;-68
2022/03/30 09:31:53;;;;;;;26.85;7.53;;;;;;;16.80;nan;99702.03;5028028;28;20638;-71
2022/03/30 09:34:20;;;;;;;21.38;6.78;;;;;;;16.83;nan;99704.09;5021763;28;20048;-70
2022/03/30 09:36:49;;;;;;;21.23;7.28;;;;;;;16.86;nan;99700.13;5008137;28;20045;-67
2022/03/30 09:39:35;;;;;;;21.02;6.70;;;;;;;16.97;nan;99704.22;5029036;28;20053;-72
2022/03/30 09:42:03;;;;;;;21.13;6.95;;;;;;;17.01;nan;99699.91;5029974;28;20044;-69
2022/03/30 09:44:43;;;;;;;20.55;7.05;;;;;;;16.97;nan;99683.72;5026364;28;20045;-69
2022/03/30 09:47:08;;;;;;;22.05;7.35;;;;;;;17.08;nan;99694.25;5030508;28;20552;-69
2022/03/30 09:49:54;;;;;;;16.88;6.50;;;;;;;17.06;nan;99681.22;5010719;28;20033;-70
2022/03/30 09:52:23;;;;;;;30.58;8.15;;;;;;;17.11;nan;99673.19;5021949;28;20041;-69
2022/03/30 09:54:57;;;;;;;22.27;8.05;;;;;;;17.11;nan;99677.72;5022103;28;20077;-69
2022/03/30 09:57:44;;;;;;;23.40;7.22;;;;;;;17.25;nan;99689.25;5017206;28;20029;-67
2022/03/30 10:00:10;;;;;;;16.13;7.30;;;;;;;17.28;nan;99685.22;5021133;28;20454;-69
2022/03/30 10:02:44;;;;;;;16.67;7.03;;;;;;;17.26;nan;99684.72;5023278;28;20057;-68
2022/03/30 10:05:18;;;;;;;22.95;6.88;;;;;;;17.25;nan;99685.81;5028233;28;20487;-68
2022/03/30 10:07:47;;;;;;;20.00;7.82;;;;;;;17.27;nan;99673.78;5029969;28;20057;-67
2022/03/30 10:10:15;;;;;;;19.27;7.28;;;;;;;17.15;nan;99657.47;5006694;28;20125;-70
2022/03/30 10:12:42;;;;;;;19.35;7.28;;;;;;;17.38;nan;99683.22;5003934;28;20392;-68
2022/03/30 10:15:09;;;;;;;21.50;7.05;;;;;;;17.30;nan;99677.75;5021840;28;20029;-67
2022/03/30 10:17:35;;;;;;;18.65;7.18;;;;;;;17.30;nan;99675.88;5024362;28;20029;-68
2022/03/30 10:20:01;;;;;;;19.35;7.90;;;;;;;17.38;nan;99675.25;5005342;28;20065;-68
2022/03/30 10:22:38;;;;;;;25.08;7.03;;;;;;;17.48;nan;99678.81;4999514;28;20037;-68
2022/03/30 10:25:12;;;;;;;23.55;7.63;;;;;;;17.56;nan;99675.50;5026531;28;20038;-69
2022/03/30 10:28:08;;;;;;;18.98;7.60;;;;;;;17.60;nan;99677.31;5017223;28;20034;-69
2022/03/30 10:30:35;;;;;;;21.42;7.40;;;;;;;17.63;nan;99668.75;5008321;28;20099;-69
2022/03/30 10:33:02;;;;;;;20.77;7.38;;;;;;;17.64;nan;99666.88;5028910;28;20083;-69
2022/03/30 10:35:40;;;;;;;20.63;7.55;;;;;;;17.74;nan;99673.91;5023996;28;20052;-67
2022/03/30 10:38:05;;;;;;;25.05;7.00;;;;;;;17.63;nan;99658.09;4996276;28;20029;-68
2022/03/30 10:40:31;;;;;;;16.65;7.07;;;;;;;17.73;nan;99665.13;5010203;28;20037;-69
2022/03/30 10:43:00;;;;;;;23.48;8.52;;;;;;;17.69;nan;99658.78;5028194;28;20555;-67
2022/03/30 10:45:29;;;;;;;20.02;7.88;;;;;;;17.69;nan;99648.13;5027755;28;20087;-68
2022/03/30 10:48:16;;;;;;;19.48;7.38;;;;;;;17.62;nan;99653.03;5014801;28;20041;-67
2022/03/30 10:50:47;;;;;;;28.23;6.95;;;;;;;17.69;nan;99658.00;5022293;28;20040;-69
2022/03/30 10:53:31;;;;;;;18.10;6.63;;;;;;;17.70;nan;99651.63;5027524;28;20033;-68
2022/03/30 10:56:24;;;;;;;22.23;8.05;;;;;;;17.70;nan;99646.28;5032211;28;20033;-68
2022/03/30 10:58:50;;;;;;;19.95;7.55;;;;;;;17.72;nan;99646.78;5027717;28;20041;-67
2022/03/30 11:01:25;;;;;;;23.88;6.90;;;;;;;17.73;nan;99645.72;5030171;28;20510;-71
2022/03/30 11:04:17;;;;;;;22.13;6.95;;;;;;;17.74;nan;99645.44;5032637;28;20399;-70
2022/03/30 11:07:06;;;;;;;20.05;6.80;;;;;;;17.70;nan;99632.97;5023500;28;20388;-70
2022/03/30 11:09:33;;;;;;;21.48;6.30;;;;;;;17.65;nan;99629.31;5018159;28;20479;-70
2022/03/30 11:12:13;;;;;;;15.95;6.63;;;;;;;17.65;nan;99629.31;4996049;28;20053;-71
2022/03/30 11:14:58;;;;;;;22.23;6.90;;;;;;;17.63;nan;99626.13;5003771;28;20037;-69
2022/03/30 11:17:32;;;;;;;24.70;7.05;;;;;;;17.69;nan;99631.38;5009188;28;20030;-71
2022/03/30 11:19:57;;;;;;;25.08;7.57;;;;;;;17.71;nan;99624.69;5011209;28;20033;-71
2022/03/30 11:22:29;;;;;;;17.20;6.40;;;;;;;17.71;nan;99616.69;5026207;28;20037;-71
2022/03/30 11:25:23;;;;;;;22.33;7.65;;;;;;;17.73;nan;99624.41;5032821;28;20064;-68
2022/03/30 11:27:58;;;;;;;22.13;6.70;;;;;;;17.73;nan;99619.06;5030723;28;20086;-68
2022/03/30 11:30:28;;;;;;;15.32;6.45;;;;;;;17.68;nan;99611.19;5013112;28;20038;-67
2022/03/30 11:32:56;;;;;;;23.23;6.45;;;;;;;17.73;nan;99621.75;5028565;28;20499;-68
2022/03/30 11:35:28;;;;;;;22.17;6.70;;;;;;;17.68;nan;99601.31;5028721;28;20055;-68
2022/03/30 11:38:21;;;;;;;20.70;6.88;;;;;;;17.69;nan;99594.09;5022208;28;20071;-68
2022/03/30 11:40:48;;;;;;;21.23;7.10;;;;;;;17.75;nan;99603.59;5029606;28;20029;-68
2022/03/30 11:43:16;;;;;;;22.70;7.00;;;;;;;17.76;nan;99597.19;5030108;28;20395;-68
2022/03/30 11:45:42;;;;;;;24.98;6.95;;;;;;;17.77;nan;99604.88;5028444;28;20026;-69
2022/03/30 11:48:12;;;;;;;19.63;6.57;;;;;;;17.82;nan;99607.50;5026836;28;20490;-67
2022/03/30 11:50:41;;;;;;;23.77;6.80;;;;;;;17.68;nan;99588.00;5028513;28;20051;-68
2022/03/30 11:53:12;;;;;;;19.25;6.97;;;;;;;17.80;nan;99590.19;5030229;28;20533;-66
2022/03/30 11:55:51;;;;;;;21.15;7.15;;;;;;;17.82;nan;99585.41;5013213;28;20029;-67
2022/03/30 11:58:49;;;;;;;22.95;7.20;;;;;;;17.83;nan;99579.75;5021864;28;20045;-68
2022/03/30 12:01:16;;;;;;;19.17;6.90;;;;;;;17.83;nan;99581.66;5007355;28;20131;-67